Time;durP1;ratioP1;P1;durP2;ratioP2;P2;SDS_P1;SDS_P2;PMS_P1;PMS_P2;Temp;Humidity;BMP_temperature;BMP_pressure;BME280_temperature;BME280_humidity;BME280_pressure;Samples;Min_cycle;Max_cycle;Signal;HPM_P1;HPM_P2
2022/05/11 00:00:09;;;;;;;;;;;28.00;94.10;;;;;;4985179;28;19933;-50
2022/05/11 00:02:37;;;;;;;;;;;28.00;94.10;;;;;;4985221;28;19917;-50
2022/05/11 00:05:07;;;;;;;;;;;28.00;94.20;;;;;;4985134;28;19902;-53
2022/05/11 00:07:33;;;;;;;;;;;28.00;94.30;;;;;;4985256;28;19937;-54
2022/05/11 00:09:59;;;;;;;;;;;27.90;94.20;;;;;;4985058;28;19909;-50
2022/05/11 00:12:26;;;;;;;;;;;27.90;94.30;;;;;;4984975;28;19977;-51
2022/05/11 00:14:52;;;;;;;;;;;27.90;94.30;;;;;;4985061;28;19906;-50
2022/05/11 00:17:19;;;;;;;;;;;27.80;94.40;;;;;;4984939;28;20261;-51
2022/05/11 00:19:45;;;;;;;;;;;27.80;94.40;;;;;;4984872;28;20205;-52
2022/05/11 00:22:11;;;;;;;;;;;27.80;94.40;;;;;;4984967;28;19909;-51
2022/05/11 00:24:37;;;;;;;;;;;27.80;94.50;;;;;;4984645;28;19914;-49
2022/05/11 00:27:04;;;;;;;;;;;27.80;94.50;;;;;;4984877;28;19902;-53
2022/05/11 00:29:30;;;;;;;;;;;27.80;94.50;;;;;;4985410;28;19918;-50
2022/05/11 00:31:57;;;;;;;;;;;27.80;94.40;;;;;;4984818;28;20133;-54
2022/05/11 00:34:23;;;;;;;;;;;27.70;94.30;;;;;;4985395;28;19917;-49
2022/05/11 00:36:49;;;;;;;;;;;27.70;94.40;;;;;;4984714;28;19977;-51
2022/05/11 00:39:15;;;;;;;;;;;27.70;94.40;;;;;;4988635;28;20086;-56
2022/05/11 00:41:42;;;;;;;;;;;27.70;94.40;;;;;;4988606;28;19909;-54
2022/05/11 00:44:09;;;;;;;;;;;27.70;94.50;;;;;;4988846;28;19910;-52
2022/05/11 00:46:37;;;;;;;;;;;27.60;94.50;;;;;;4993166;28;19906;-49
2022/05/11 00:51:53;;;;;;;;;;;27.60;94.70;;;;;;4988525;28;19973;-53
2022/05/11 00:54:21;;;;;;;;;;;27.60;94.80;;;;;;4988759;28;19910;-48
2022/05/11 00:56:49;;;;;;;;;;;27.60;94.80;;;;;;4988065;28;19980;-52
2022/05/11 00:59:17;;;;;;;;;;;27.50;94.70;;;;;;4988667;28;20190;-49
2022/05/11 01:01:44;;;;;;;;;;;27.50;94.40;;;;;;4988444;28;19909;-48
2022/05/11 01:04:12;;;;;;;;;;;27.40;94.30;;;;;;4986604;28;19910;-55
2022/05/11 01:06:40;;;;;;;;;;;27.30;94.10;;;;;;4987755;28;19934;-48
2022/05/11 01:09:08;;;;;;;;;;;27.30;94.20;;;;;;4988553;28;19932;-52
2022/05/11 01:11:38;;;;;;;;;;;27.20;94.20;;;;;;4987589;28;19902;-53
2022/05/11 01:14:06;;;;;;;;;;;27.20;94.30;;;;;;5008437;28;20081;-55
2022/05/11 01:16:32;;;;;;;;;;;27.20;94.20;;;;;;5007582;28;19914;-56
2022/05/11 01:18:59;;;;;;;;;;;27.20;94.20;;;;;;5002451;28;20204;-54
2022/05/11 01:21:30;;;;;;;;;;;27.10;94.40;;;;;;5007385;28;19909;-49
2022/05/11 01:24:00;;;;;;;;;;;27.10;94.20;;;;;;5001127;28;19909;-54
2022/05/11 01:26:27;;;;;;;;;;;27.10;94.40;;;;;;4998114;28;20247;-53
2022/05/11 01:28:54;;;;;;;;;;;27.10;94.40;;;;;;4998986;28;20067;-52
2022/05/11 01:31:22;;;;;;;;;;;27.10;94.50;;;;;;4989968;28;20198;-51
2022/05/11 01:33:49;;;;;;;;;;;27.10;94.80;;;;;;4990916;28;20069;-51
2022/05/11 01:36:30;;;;;;;;;;;27.00;94.90;;;;;;4996362;28;19929;-50
2022/05/11 01:38:56;;;;;;;;;;;26.90;94.90;;;;;;4995737;28;19918;-50
2022/05/11 01:41:25;;;;;;;;;;;26.80;95.10;;;;;;4995937;28;19906;-56
2022/05/11 01:43:51;;;;;;;;;;;26.80;95.10;;;;;;4996287;28;19918;-51
2022/05/11 01:46:18;;;;;;;;;;;26.80;95.00;;;;;;4995567;28;19948;-51
2022/05/11 01:48:44;;;;;;;;;;;26.70;94.90;;;;;;4995406;28;19909;-50
2022/05/11 01:51:11;;;;;;;;;;;26.60;95.00;;;;;;4996292;28;19910;-47
2022/05/11 01:53:38;;;;;;;;;;;26.60;95.00;;;;;;4995900;28;19916;-48
2022/05/11 01:56:04;;;;;;;;;;;26.50;95.10;;;;;;4996073;28;19980;-53
2022/05/11 01:58:31;;;;;;;;;;;26.50;95.30;;;;;;4990597;28;19967;-54
2022/05/11 02:00:58;;;;;;;;;;;26.40;95.20;;;;;;4998195;28;19906;-54
2022/05/11 02:03:24;;;;;;;;;;;26.30;95.30;;;;;;5000438;28;20223;-51
2022/05/11 02:08:36;;;;;;;;;;;26.40;95.20;;;;;;4994395;28;19979;-46
2022/05/11 02:11:03;;;;;;;;;;;26.30;95.40;;;;;;4996322;28;19906;-55
2022/05/11 02:13:29;;;;;;;;;;;26.30;95.50;;;;;;4992336;28;19957;-55
2022/05/11 02:15:56;;;;;;;;;;;26.30;95.30;;;;;;4997479;28;19910;-53
2022/05/11 02:18:22;;;;;;;;;;;26.30;95.40;;;;;;4992425;28;20027;-51
2022/05/11 02:20:48;;;;;;;;;;;26.40;95.40;;;;;;5006332;28;19905;-49
2022/05/11 02:23:16;;;;;;;;;;;26.30;95.50;;;;;;5006194;28;19913;-48
2022/05/11 02:25:43;;;;;;;;;;;26.30;95.40;;;;;;4999452;28;19913;-51
2022/05/11 02:28:10;;;;;;;;;;;26.30;95.40;;;;;;4990472;28;19909;-54
2022/05/11 02:30:37;;;;;;;;;;;26.40;95.50;;;;;;5006053;28;20097;-44
2022/05/11 02:33:03;;;;;;;;;;;26.40;95.40;;;;;;5005616;28;19906;-56
2022/05/11 02:35:29;;;;;;;;;;;26.40;95.50;;;;;;5000475;28;19906;-53
2022/05/11 02:37:57;;;;;;;;;;;26.40;95.40;;;;;;4995178;28;19916;-45
2022/05/11 02:40:27;;;;;;;;;;;26.50;95.30;;;;;;4990037;28;19906;-49
2022/05/11 02:42:53;;;;;;;;;;;26.50;95.30;;;;;;5001019;28;19917;-48
2022/05/11 02:45:19;;;;;;;;;;;26.40;95.40;;;;;;5005567;28;19917;-50
2022/05/11 02:47:46;;;;;;;;;;;26.50;95.40;;;;;;4999064;28;20082;-50
2022/05/11 02:50:17;;;;;;;;;;;26.50;95.40;;;;;;4988104;28;20133;-51
2022/05/11 02:52:43;;;;;;;;;;;26.50;95.40;;;;;;4986357;28;19910;-49
2022/05/11 02:55:10;;;;;;;;;;;26.50;95.50;;;;;;4996219;28;19909;-46
2022/05/11 02:57:37;;;;;;;;;;;26.50;95.70;;;;;;4986653;28;19914;-52
2022/05/11 03:00:04;;;;;;;;;;;26.50;95.60;;;;;;4968017;28;19941;-52
2022/05/11 03:02:30;;;;;;;;;;;26.50;95.70;;;;;;4986264;28;20151;-54
2022/05/11 03:04:57;;;;;;;;;;;26.50;95.70;;;;;;4986091;28;19968;-56
2022/05/11 03:07:23;;;;;;;;;;;26.60;95.80;;;;;;4985993;28;19973;-53
2022/05/11 03:09:51;;;;;;;;;;;26.60;95.80;;;;;;4985390;28;19913;-53
2022/05/11 03:12:17;;;;;;;;;;;26.50;95.80;;;;;;4996486;28;19902;-48
2022/05/11 03:14:43;;;;;;;;;;;26.50;95.80;;;;;;5005559;28;20086;-47
2022/05/11 03:17:09;;;;;;;;;;;26.60;95.80;;;;;;5005158;28;19906;-44
2022/05/11 03:19:38;;;;;;;;;;;26.60;95.80;;;;;;5005312;28;19901;-49
2022/05/11 03:22:04;;;;;;;;;;;26.60;95.90;;;;;;5004995;28;20129;-45
2022/05/11 03:24:30;;;;;;;;;;;26.60;95.90;;;;;;4998191;28;19953;-50
2022/05/11 03:26:57;;;;;;;;;;;26.60;95.90;;;;;;4996742;28;19909;-45
2022/05/11 03:29:23;;;;;;;;;;;26.50;95.80;;;;;;5005501;28;19909;-48
2022/05/11 03:34:37;;;;;;;;;;;26.60;96.00;;;;;;4992221;28;19951;-46
2022/05/11 03:37:04;;;;;;;;;;;26.50;95.90;;;;;;5004384;28;19941;-45
2022/05/11 03:39:30;;;;;;;;;;;26.50;95.80;;;;;;5005589;28;20117;-47
2022/05/11 03:41:57;;;;;;;;;;;26.60;95.90;;;;;;5004872;28;20190;-56
2022/05/11 03:44:23;;;;;;;;;;;26.50;95.90;;;;;;5005480;28;19910;-45
2022/05/11 03:46:49;;;;;;;;;;;26.50;95.80;;;;;;5004893;28;19902;-47
2022/05/11 03:49:15;;;;;;;;;;;26.50;95.90;;;;;;5005037;28;19910;-49
2022/05/11 03:51:41;;;;;;;;;;;26.50;95.90;;;;;;5004869;28;19909;-49
2022/05/11 03:54:07;;;;;;;;;;;26.50;95.80;;;;;;5005121;28;20153;-49
2022/05/11 03:56:34;;;;;;;;;;;26.50;95.80;;;;;;5004555;28;20137;-46
2022/05/11 03:59:00;;;;;;;;;;;26.50;95.80;;;;;;5005176;28;20201;-47
2022/05/11 04:01:26;;;;;;;;;;;26.50;95.80;;;;;;5004785;28;19908;-56
2022/05/11 04:03:52;;;;;;;;;;;26.50;95.80;;;;;;5005093;28;20186;-58
2022/05/11 04:06:18;;;;;;;;;;;26.50;95.70;;;;;;5004699;28;19913;-47
2022/05/11 04:08:44;;;;;;;;;;;26.50;95.80;;;;;;5005142;28;19910;-51
2022/05/11 04:11:12;;;;;;;;;;;26.50;95.90;;;;;;5004613;28;19949;-48
2022/05/11 04:13:40;;;;;;;;;;;26.50;96.00;;;;;;5007210;28;19910;-53
2022/05/11 04:16:09;;;;;;;;;;;26.50;96.00;;;;;;5008483;28;19980;-46
2022/05/11 04:18:36;;;;;;;;;;;26.40;95.90;;;;;;5008395;28;19918;-53
2022/05/11 04:21:02;;;;;;;;;;;26.40;95.90;;;;;;4997643;28;20287;-47
2022/05/11 04:23:28;;;;;;;;;;;26.40;95.90;;;;;;4998485;28;20174;-47
2022/05/11 04:25:57;;;;;;;;;;;26.40;96.00;;;;;;4994148;28;19921;-47
2022/05/11 04:28:23;;;;;;;;;;;26.40;95.90;;;;;;5008809;28;20182;-50
2022/05/11 04:30:49;;;;;;;;;;;26.40;95.90;;;;;;5005318;28;19968;-52
2022/05/11 04:33:16;;;;;;;;;;;26.50;96.00;;;;;;5008635;28;19910;-50
2022/05/11 04:35:42;;;;;;;;;;;26.40;96.00;;;;;;5008228;28;19980;-50
2022/05/11 04:38:08;;;;;;;;;;;26.40;96.00;;;;;;5008539;28;19968;-54
2022/05/11 04:40:34;;;;;;;;;;;26.40;95.90;;;;;;5008241;28;20204;-48
2022/05/11 04:43:10;;;;;;;;;;;26.40;96.20;;;;;;5008214;28;19981;-48
2022/05/11 04:45:38;;;;;;;;;;;26.40;96.00;;;;;;5008240;28;19937;-44
2022/05/11 04:48:04;;;;;;;;;;;26.40;96.10;;;;;;4994862;28;19941;-47
2022/05/11 04:50:30;;;;;;;;;;;26.40;96.10;;;;;;4992554;28;19929;-51
2022/05/11 04:52:56;;;;;;;;;;;26.40;96.10;;;;;;5000757;28;19914;-51
2022/05/11 04:55:22;;;;;;;;;;;26.40;96.10;;;;;;5000480;28;19937;-48
2022/05/11 04:57:49;;;;;;;;;;;26.40;96.10;;;;;;4988438;28;20237;-50
2022/05/11 05:00:15;;;;;;;;;;;26.40;96.10;;;;;;4988351;28;19924;-48
2022/05/11 05:02:41;;;;;;;;;;;26.40;96.10;;;;;;4988437;28;20201;-45
2022/05/11 05:05:10;;;;;;;;;;;26.40;96.10;;;;;;4988214;28;19909;-48
2022/05/11 05:07:37;;;;;;;;;;;26.40;96.10;;;;;;4988347;28;20200;-50
2022/05/11 05:10:04;;;;;;;;;;;26.40;96.10;;;;;;4988186;28;19948;-47
2022/05/11 05:12:30;;;;;;;;;;;26.40;96.20;;;;;;4990361;28;19910;-47
2022/05/11 05:14:57;;;;;;;;;;;26.40;96.10;;;;;;4988388;28;19902;-51
2022/05/11 05:17:23;;;;;;;;;;;26.40;96.10;;;;;;4988031;28;19906;-45
2022/05/11 05:19:49;;;;;;;;;;;26.40;96.20;;;;;;4987936;28;19909;-53
2022/05/11 05:22:16;;;;;;;;;;;26.30;96.10;;;;;;4988073;28;19902;-45
2022/05/11 05:24:42;;;;;;;;;;;26.30;96.20;;;;;;4987609;28;19957;-48
2022/05/11 05:27:10;;;;;;;;;;;26.30;96.10;;;;;;4970515;28;20153;-47
2022/05/11 05:32:21;;;;;;;;;;;26.30;96.20;;;;;;5005871;28;19908;-45
2022/05/11 05:34:47;;;;;;;;;;;26.30;96.30;;;;;;5007203;28;19909;-47
2022/05/11 05:37:14;;;;;;;;;;;26.30;96.20;;;;;;5007016;28;19912;-48
2022/05/11 05:39:40;;;;;;;;;;;26.30;96.20;;;;;;5007146;28;20118;-52
2022/05/11 05:42:07;;;;;;;;;;;26.30;96.30;;;;;;5007195;28;19925;-48
2022/05/11 05:44:33;;;;;;;;;;;26.30;96.30;;;;;;5006975;28;20194;-45
2022/05/11 05:47:03;;;;;;;;;;;26.30;96.30;;;;;;5006998;28;19924;-43
2022/05/11 05:49:30;;;;;;;;;;;26.30;96.30;;;;;;5007411;28;19910;-50
2022/05/11 05:51:58;;;;;;;;;;;26.30;96.20;;;;;;5006882;28;19933;-46
2022/05/11 05:54:25;;;;;;;;;;;26.30;96.20;;;;;;5007371;28;19913;-53
2022/05/11 05:56:52;;;;;;;;;;;26.30;96.30;;;;;;5006722;28;20265;-47
2022/05/11 05:59:18;;;;;;;;;;;26.30;96.30;;;;;;5007230;28;19981;-49
2022/05/11 06:01:44;;;;;;;;;;;26.30;96.30;;;;;;5006853;28;20075;-50
2022/05/11 06:04:10;;;;;;;;;;;26.30;96.30;;;;;;5001619;28;19910;-47
2022/05/11 06:06:36;;;;;;;;;;;26.30;96.30;;;;;;4987150;28;19925;-52
2022/05/11 06:09:04;;;;;;;;;;;26.30;96.40;;;;;;4987638;28;20182;-46
2022/05/11 06:11:30;;;;;;;;;;;26.30;96.30;;;;;;4986903;28;20186;-48
2022/05/11 06:13:59;;;;;;;;;;;26.30;96.30;;;;;;4987538;28;19956;-47
2022/05/11 06:16:25;;;;;;;;;;;26.30;96.30;;;;;;4987142;28;19913;-51
2022/05/11 06:18:51;;;;;;;;;;;26.20;96.30;;;;;;4987187;28;19981;-55
2022/05/11 06:21:17;;;;;;;;;;;26.20;96.40;;;;;;4986910;28;20081;-44
2022/05/11 06:23:44;;;;;;;;;;;26.20;96.30;;;;;;4987046;28;20171;-46
2022/05/11 06:26:10;;;;;;;;;;;26.20;96.30;;;;;;4986503;28;20190;-48
2022/05/11 06:28:39;;;;;;;;;;;26.20;96.40;;;;;;4987258;28;19914;-54
2022/05/11 06:31:06;;;;;;;;;;;26.20;96.40;;;;;;4986964;28;19902;-54
2022/05/11 06:33:34;;;;;;;;;;;26.20;96.30;;;;;;4986866;28;19913;-50
2022/05/11 06:36:02;;;;;;;;;;;26.20;96.40;;;;;;4986115;28;19969;-47
2022/05/11 06:38:28;;;;;;;;;;;26.20;96.40;;;;;;4986877;28;19914;-53
2022/05/11 06:40:54;;;;;;;;;;;26.20;96.40;;;;;;4986473;28;19902;-45
2022/05/11 06:43:21;;;;;;;;;;;26.20;96.30;;;;;;4986898;28;19910;-48
2022/05/11 06:45:47;;;;;;;;;;;26.20;96.30;;;;;;4986473;28;19902;-47
2022/05/11 06:48:14;;;;;;;;;;;26.20;96.30;;;;;;4986295;28;19917;-55
2022/05/11 06:50:43;;;;;;;;;;;26.20;96.40;;;;;;4986470;28;19909;-53
2022/05/11 06:53:12;;;;;;;;;;;26.20;96.40;;;;;;4986572;28;19953;-47
2022/05/11 07:01:08;;;;;;;;;;;26.20;96.40;;;;;;4986328;28;19910;-48
2022/05/11 07:03:34;;;;;;;;;;;26.10;96.40;;;;;;4986394;28;20142;-49
2022/05/11 07:06:00;;;;;;;;;;;26.10;96.40;;;;;;4986023;28;20186;-48
2022/05/11 07:08:33;;;;;;;;;;;26.10;96.40;;;;;;4986449;28;19918;-46
2022/05/11 07:13:43;;;;;;;;;;;26.20;96.40;;;;;;4986456;28;19933;-50
2022/05/11 07:16:09;;;;;;;;;;;26.10;96.40;;;;;;4985865;28;19919;-53
2022/05/11 07:18:35;;;;;;;;;;;26.10;96.40;;;;;;4986179;28;20182;-52
2022/05/11 07:21:03;;;;;;;;;;;26.10;96.40;;;;;;4985927;28;20217;-49
2022/05/11 07:23:30;;;;;;;;;;;26.10;96.40;;;;;;4985930;28;19910;-46
2022/05/11 07:25:56;;;;;;;;;;;26.10;96.40;;;;;;4985649;28;19914;-48
2022/05/11 07:28:22;;;;;;;;;;;26.10;96.40;;;;;;4986063;28;19945;-46
2022/05/11 07:30:48;;;;;;;;;;;26.10;96.40;;;;;;4985671;28;19909;-46
2022/05/11 07:33:15;;;;;;;;;;;26.10;96.40;;;;;;4985856;28;20181;-47
2022/05/11 07:35:42;;;;;;;;;;;26.10;96.40;;;;;;4985330;28;19925;-46
2022/05/11 07:38:09;;;;;;;;;;;26.10;96.50;;;;;;4985828;28;20118;-51
2022/05/11 07:40:36;;;;;;;;;;;26.10;96.40;;;;;;4985548;28;20216;-51
2022/05/11 07:43:02;;;;;;;;;;;26.10;96.40;;;;;;4985542;28;20125;-51
2022/05/11 07:45:28;;;;;;;;;;;26.10;96.40;;;;;;4985663;28;19909;-52
2022/05/11 07:47:54;;;;;;;;;;;26.10;96.40;;;;;;4984701;28;19910;-53
2022/05/11 07:50:20;;;;;;;;;;;26.10;96.40;;;;;;4985376;28;19902;-48
2022/05/11 07:52:47;;;;;;;;;;;26.10;96.50;;;;;;4985575;28;20186;-54
2022/05/11 07:55:14;;;;;;;;;;;26.10;96.50;;;;;;4985428;28;19965;-45
2022/05/11 08:00:25;;;;;;;;;;;26.10;96.50;;;;;;4985479;28;20212;-51
2022/05/11 08:02:52;;;;;;;;;;;26.10;96.60;;;;;;4985303;28;19917;-44
2022/05/11 08:05:19;;;;;;;;;;;26.00;96.50;;;;;;4985320;28;20126;-46
2022/05/11 08:07:49;;;;;;;;;;;26.00;96.50;;;;;;4985516;28;19910;-54
2022/05/11 08:10:17;;;;;;;;;;;26.10;96.60;;;;;;4985156;28;19949;-48
2022/05/11 08:12:43;;;;;;;;;;;26.00;96.60;;;;;;4985456;28;19941;-48
2022/05/11 08:15:11;;;;;;;;;;;26.00;96.60;;;;;;4985264;28;19902;-49
2022/05/11 08:17:38;;;;;;;;;;;26.00;96.60;;;;;;4985004;28;19921;-58
2022/05/11 08:20:07;;;;;;;;;;;26.00;96.60;;;;;;4985133;28;19929;-49
2022/05/11 08:22:34;;;;;;;;;;;26.00;96.60;;;;;;4985221;28;19910;-49
2022/05/11 08:25:00;;;;;;;;;;;26.00;96.60;;;;;;4984760;28;19989;-50
2022/05/11 08:27:28;;;;;;;;;;;26.00;96.70;;;;;;4985085;28;19902;-43
2022/05/11 08:35:25;;;;;;;;;;;26.00;96.60;;;;;;4985162;28;20101;-52
2022/05/11 08:37:51;;;;;;;;;;;26.00;96.60;;;;;;4985085;28;20003;-48
2022/05/11 08:40:26;;;;;;;;;;;26.00;96.60;;;;;;4985112;28;19906;-47
2022/05/11 08:42:52;;;;;;;;;;;26.00;96.70;;;;;;4985085;28;20174;-51
2022/05/11 08:45:18;;;;;;;;;;;26.00;96.60;;;;;;4985092;28;20281;-48
2022/05/11 08:47:47;;;;;;;;;;;26.00;96.60;;;;;;4984995;28;19913;-47
2022/05/11 08:50:13;;;;;;;;;;;26.00;96.60;;;;;;4984735;28;19906;-44
2022/05/11 08:52:48;;;;;;;;;;;26.00;96.60;;;;;;4985141;28;19906;-45
2022/05/11 08:55:32;;;;;;;;;;;26.00;96.60;;;;;;4984749;28;19934;-46
2022/05/11 08:58:04;;;;;;;;;;;26.00;96.60;;;;;;4985052;28;20118;-48
2022/05/11 09:00:30;;;;;;;;;;;26.00;96.60;;;;;;4988319;28;19909;-52
2022/05/11 09:03:19;;;;;;;;;;;26.00;96.60;;;;;;4988381;28;20174;-48
2022/05/11 09:05:45;;;;;;;;;;;26.00;96.60;;;;;;4988113;28;20079;-45
2022/05/11 09:08:11;;;;;;;;;;;26.00;96.60;;;;;;4988414;28;19969;-49
2022/05/11 09:10:38;;;;;;;;;;;25.90;96.60;;;;;;4988368;28;19906;-55
2022/05/11 09:13:06;;;;;;;;;;;25.90;96.60;;;;;;4988246;28;19906;-51
2022/05/11 09:15:47;;;;;;;;;;;26.00;96.60;;;;;;4988009;28;20158;-44
2022/05/11 09:18:14;;;;;;;;;;;26.00;96.60;;;;;;4988109;28;20208;-47
2022/05/11 09:20:45;;;;;;;;;;;25.90;96.50;;;;;;4988082;28;19952;-54
2022/05/11 09:23:11;;;;;;;;;;;25.90;96.50;;;;;;4988082;28;19906;-50
2022/05/11 09:25:52;;;;;;;;;;;25.90;96.50;;;;;;4987937;28;19921;-48
2022/05/11 09:28:23;;;;;;;;;;;25.90;96.40;;;;;;4988057;28;19952;-50
2022/05/11 09:31:02;;;;;;;;;;;25.90;96.40;;;;;;4987835;28;19902;-58
2022/05/11 09:33:30;;;;;;;;;;;25.90;96.30;;;;;;4988044;28;19910;-52
2022/05/11 09:35:56;;;;;;;;;;;25.90;96.30;;;;;;4987758;28;19944;-50
2022/05/11 09:38:24;;;;;;;;;;;25.90;96.20;;;;;;4987937;28;19917;-45
2022/05/11 09:40:50;;;;;;;;;;;25.90;96.10;;;;;;4987540;28;20190;-49
2022/05/11 09:43:27;;;;;;;;;;;25.90;96.00;;;;;;4988120;28;19981;-51
2022/05/11 09:45:53;;;;;;;;;;;25.90;95.90;;;;;;4987648;28;20075;-47
2022/05/11 09:48:22;;;;;;;;;;;25.80;95.70;;;;;;4987654;28;20012;-46
2022/05/11 09:50:53;;;;;;;;;;;25.80;95.70;;;;;;4987491;28;19902;-48
2022/05/11 09:53:27;;;;;;;;;;;25.80;95.60;;;;;;4987505;28;19910;-55
2022/05/11 09:55:53;;;;;;;;;;;25.70;95.50;;;;;;4987227;28;19949;-45
2022/05/11 09:58:30;;;;;;;;;;;25.80;95.40;;;;;;4987669;28;19910;-47
2022/05/11 10:01:10;;;;;;;;;;;25.80;95.30;;;;;;4987162;28;19948;-44
2022/05/11 10:03:39;;;;;;;;;;;25.70;95.30;;;;;;4987257;28;19917;-42
2022/05/11 10:06:07;;;;;;;;;;;25.70;95.30;;;;;;4987050;28;19908;-45
2022/05/11 10:08:36;;;;;;;;;;;25.70;95.20;;;;;;4987472;28;19954;-46
2022/05/11 10:11:05;;;;;;;;;;;25.70;95.20;;;;;;4986018;28;19902;-49
2022/05/11 10:13:34;;;;;;;;;;;25.70;95.20;;;;;;4987197;28;19910;-46
2022/05/11 10:22:06;;;;;;;6.20;0.60;;;25.60;95.20;;;;;;4986616;28;20058;-49
2022/05/11 10:24:53;;;;;;;3.57;0.60;;;25.60;95.20;;;;;;4986268;28;20047;-45
2022/05/11 10:27:31;;;;;;;1.85;0.60;;;25.60;95.20;;;;;;4986614;28;20574;-51
2022/05/11 10:30:08;;;;;;;2.15;0.47;;;25.60;95.20;;;;;;4986332;28;20027;-51
2022/05/11 10:32:51;;;;;;;2.92;0.98;;;25.60;95.20;;;;;;4986262;28;20030;-45
2022/05/11 10:35:52;;;;;;;5.32;0.75;;;25.60;95.20;;;;;;4986219;28;20033;-46
2022/05/11 10:38:30;;;;;;;7.70;0.90;;;25.50;95.20;;;;;;4986304;28;20030;-51
2022/05/11 10:41:27;;;;;;;5.60;1.00;;;25.50;95.30;;;;;;4986035;28;20188;-47
2022/05/11 10:44:06;;;;;;;4.80;0.85;;;25.50;95.40;;;;;;4968961;28;20034;-48
2022/05/11 10:46:40;;;;;;;4.97;0.60;;;25.50;95.40;;;;;;4985916;28;20025;-48
2022/05/11 10:49:26;;;;;;;4.25;0.70;;;25.50;95.40;;;;;;4986142;28;20306;-48
2022/05/11 10:52:19;;;;;;;4.13;0.63;;;25.50;95.40;;;;;;4985877;28;20026;-46
2022/05/11 10:55:05;;;;;;;2.28;0.90;;;25.50;95.50;;;;;;4985884;28;20066;-52
2022/05/11 10:58:05;;;;;;;7.95;0.93;;;25.50;95.60;;;;;;4985658;28;20046;-50
2022/05/11 11:00:34;;;;;;;;;;;25.50;95.50;;;;;;4986191;28;20049;-46
2022/05/11 11:03:19;;;;;;;;;;;25.50;95.50;;;;;;4986059;28;19946;-53
2022/05/11 11:05:45;;;;;;;;;;;25.50;95.60;;;;;;4987949;28;19906;-58
2022/05/11 11:08:20;;;;;;;;;;;25.50;95.60;;;;;;4986167;28;19916;-59
2022/05/11 11:10:58;;;;;;;;;;;25.50;95.70;;;;;;4985999;28;19909;-50
2022/05/11 11:13:31;;;;;;;;;;;25.50;95.70;;;;;;4986204;28;19910;-52
2022/05/11 11:15:57;;;;;;;;;;;25.60;95.90;;;;;;4985908;28;20126;-54
2022/05/11 11:18:30;;;;;;;;;;;25.50;95.80;;;;;;4986129;28;19977;-53
2022/05/11 11:21:01;;;;;;;;;;;25.50;95.90;;;;;;4985709;28;20190;-48
2022/05/11 11:23:29;;;;;;;;;;;25.50;96.00;;;;;;4985943;28;19910;-52
2022/05/11 11:26:00;;;;;;;;;;;25.50;96.10;;;;;;4985775;28;20083;-53
2022/05/11 11:28:28;;;;;;;;;;;25.50;96.10;;;;;;4986126;28;19914;-52
2022/05/11 11:30:57;;;;;;;;;;;25.60;96.20;;;;;;4985788;28;20186;-53
2022/05/11 11:33:24;;;;;;;;;;;25.60;96.30;;;;;;4985777;28;20102;-49
2022/05/11 11:35:55;;;;;;;;;;;25.60;96.20;;;;;;4985491;28;19911;-52
2022/05/11 11:38:42;;;;;;;;;;;25.60;96.30;;;;;;4985695;28;19910;-54
2022/05/11 11:41:18;;;;;;;;;;;25.70;96.20;;;;;;4975172;28;19909;-52
2022/05/11 11:43:55;;;;;;;;;;;25.70;96.30;;;;;;4985990;28;19964;-54
2022/05/11 11:46:30;;;;;;;;;;;25.70;96.20;;;;;;4985513;28;19909;-56
2022/05/11 11:49:04;;;;;;;;;;;25.80;96.10;;;;;;4985415;28;20222;-51
2022/05/11 11:51:32;;;;;;;;;;;25.90;96.10;;;;;;4985353;28;19902;-53
2022/05/11 11:53:59;;;;;;;;;;;25.90;96.00;;;;;;4985793;28;19914;-53
2022/05/11 11:56:27;;;;;;;;;;;26.00;95.90;;;;;;4985275;28;19913;-54
2022/05/11 11:59:08;;;;;;;;;;;26.10;96.00;;;;;;4985686;28;20202;-52
2022/05/11 12:01:36;;;;;;;;;;;26.10;95.90;;;;;;4985397;28;19941;-52
2022/05/11 12:04:06;;;;;;;;;;;26.10;95.90;;;;;;4985671;28;19910;-53
2022/05/11 12:15:03;;;;;;;;;;;26.50;95.30;;;;;;4985462;28;20270;-50
2022/05/11 12:17:37;;;;;;;;;;;26.50;95.40;;;;;;4989640;28;19914;-57
2022/05/11 12:20:09;;;;;;;;;;;26.50;95.20;;;;;;4985322;28;19969;-52
2022/05/11 12:22:43;;;;;;;;;;;26.50;95.10;;;;;;4985756;28;20216;-52
2022/05/11 12:25:09;;;;;;;;;;;26.50;95.10;;;;;;4984818;28;19914;-54
2022/05/11 12:27:36;;;;;;;;;;;26.50;95.20;;;;;;4985155;28;19980;-47
2022/05/11 12:30:05;;;;;;;;;;;26.60;95.20;;;;;;4985098;28;19902;-56
2022/05/11 12:32:33;;;;;;;;;;;26.60;95.10;;;;;;4984763;28;19913;-52
2022/05/11 12:35:11;;;;;;;;;;;26.60;95.00;;;;;;4988016;28;19902;-52
2022/05/11 12:37:38;;;;;;;;;;;26.70;94.90;;;;;;4988672;28;19914;-49
2022/05/11 12:40:13;;;;;;;;;;;26.70;95.00;;;;;;4988726;28;20125;-55
2022/05/11 12:42:40;;;;;;;;;;;26.70;94.80;;;;;;4988846;28;19933;-53
2022/05/11 12:45:19;;;;;;;;;;;26.70;94.80;;;;;;4988666;28;19902;-56
2022/05/11 12:47:47;;;;;;;;;;;26.80;94.80;;;;;;4988798;28;20156;-55
2022/05/11 12:50:15;;;;;;;;;;;26.80;94.80;;;;;;4988451;28;20185;-55
2022/05/11 12:52:41;;;;;;;;;;;26.80;94.80;;;;;;4988678;28;19917;-56
2022/05/11 12:55:08;;;;;;;;;;;26.80;94.60;;;;;;4988583;28;19909;-60
2022/05/11 12:57:35;;;;;;;;;;;26.90;94.60;;;;;;4988335;28;20156;-56
2022/05/11 13:00:02;;;;;;;;;;;26.90;94.70;;;;;;4988369;28;19910;-51
2022/05/11 13:02:32;;;;;;;;;;;26.90;94.60;;;;;;4988377;28;19910;-52
2022/05/11 13:04:59;;;;;;;;;;;26.90;94.70;;;;;;4988151;28;19902;-56
2022/05/11 13:07:29;;;;;;;;;;;26.90;94.60;;;;;;4988339;28;19902;-56
2022/05/11 13:09:57;;;;;;;;;;;26.90;94.60;;;;;;4988322;28;20237;-52
2022/05/11 13:12:23;;;;;;;;;;;26.90;94.50;;;;;;4988121;28;19949;-53
2022/05/11 13:14:53;;;;;;;;;;;26.90;94.60;;;;;;4988209;28;19909;-52
2022/05/11 13:17:26;;;;;;;;;;;26.90;94.60;;;;;;4988006;28;19905;-52
2022/05/11 13:19:57;;;;;;;;;;;26.90;94.90;;;;;;4987997;28;20195;-49
2022/05/11 13:22:25;;;;;;;;;;;27.00;94.70;;;;;;4988065;28;20071;-53
2022/05/11 13:24:52;;;;;;;;;;;27.00;94.80;;;;;;4987700;28;19918;-59
2022/05/11 13:27:33;;;;;;;;;;;26.90;94.70;;;;;;4987866;28;19909;-52
2022/05/11 13:30:04;;;;;;;;;;;26.90;94.80;;;;;;4989282;28;19906;-49
2022/05/11 13:32:35;;;;;;;;;;;26.90;94.80;;;;;;4987766;28;19910;-50
2022/05/11 13:35:20;;;;;;;;;;;27.00;95.00;;;;;;4987814;28;19902;-50
2022/05/11 13:38:01;;;;;;;;;;;27.00;94.60;;;;;;4987603;28;19952;-54
2022/05/11 13:40:32;;;;;;;;;;;27.00;94.00;;;;;;4987678;28;19902;-54
2022/05/11 13:42:59;;;;;;;;;;;27.00;94.50;;;;;;4987792;28;19916;-58
2022/05/11 13:45:25;;;;;;;;;;;27.00;94.50;;;;;;4987555;28;19902;-56
2022/05/11 13:50:39;;;;;;;;;;;27.00;94.30;;;;;;4987569;28;20202;-51
2022/05/11 13:53:11;;;;;;;;;;;27.00;94.10;;;;;;4987650;28;20082;-56
2022/05/11 13:55:39;;;;;;;;;;;27.00;94.30;;;;;;4987265;28;19902;-54
2022/05/11 13:58:41;;;;;;;;;;;27.00;94.30;;;;;;4987583;28;19910;-54
2022/05/11 14:01:09;;;;;;;;;;;27.00;94.00;;;;;;4928111;29;20175;-50
2022/05/11 14:04:04;;;;;;;;;;;27.00;93.90;;;;;;4976392;28;19910;-53
2022/05/11 14:06:53;;;;;;;;;;;27.00;94.20;;;;;;4975031;28;19936;-54
2022/05/11 14:09:19;;;;;;;;;;;27.00;94.30;;;;;;4979235;28;20023;-50
2022/05/11 14:11:46;;;;;;;;;;;27.00;94.30;;;;;;4987227;28;20148;-55
2022/05/11 14:14:12;;;;;;;;;;;26.90;94.40;;;;;;4987527;28;19964;-58
2022/05/11 14:16:38;;;;;;;;;;;27.00;94.70;;;;;;4986839;28;19905;-60
2022/05/11 14:19:05;;;;;;;;;;;26.90;94.60;;;;;;4987065;28;19910;-59
2022/05/11 14:21:35;;;;;;;;;;;26.90;94.70;;;;;;4991895;28;19913;-56
2022/05/11 14:24:02;;;;;;;;;;;27.00;94.60;;;;;;4992290;28;20054;-52
2022/05/11 14:26:28;;;;;;;;;;;27.00;94.40;;;;;;4987010;28;19992;-57
2022/05/11 14:28:54;;;;;;;;;;;27.00;94.50;;;;;;4987209;28;19911;-54
2022/05/11 14:31:21;;;;;;;;;;;27.00;94.50;;;;;;4986775;28;19906;-55
2022/05/11 14:33:53;;;;;;;;;;;27.00;94.60;;;;;;4987216;28;19913;-53
2022/05/11 14:36:19;;;;;;;;;;;27.00;94.60;;;;;;4986525;28;19909;-53
2022/05/11 14:38:45;;;;;;;;;;;27.00;94.50;;;;;;4986931;28;19934;-49
2022/05/11 14:41:11;;;;;;;;;;;27.00;94.70;;;;;;4993671;28;19977;-54
2022/05/11 14:43:38;;;;;;;;;;;27.00;94.70;;;;;;4997016;28;19972;-56
2022/05/11 14:46:05;;;;;;;;;;;27.00;94.60;;;;;;4986510;28;19949;-50
2022/05/11 14:48:34;;;;;;;;;;;27.10;94.50;;;;;;4997062;28;19952;-61
2022/05/11 14:51:01;;;;;;;;;;;27.10;94.50;;;;;;4986501;28;19957;-53
2022/05/11 14:53:28;;;;;;;;;;;27.10;94.50;;;;;;4986464;28;20105;-53
2022/05/11 14:55:54;;;;;;;;;;;27.10;94.20;;;;;;4986054;28;19998;-51
2022/05/11 15:03:53;;;;;;;;;;;27.10;94.60;;;;;;4986081;28;19981;-50
2022/05/11 15:06:19;;;;;;;;;;;27.10;94.60;;;;;;4986483;28;19902;-57
2022/05/11 15:08:51;;;;;;;;;;;27.10;94.60;;;;;;4986386;28;19910;-48
2022/05/11 15:14:02;;;;;;;;;;;27.20;94.50;;;;;;4986510;28;19972;-54
2022/05/11 15:16:30;;;;;;;;;;;27.20;94.50;;;;;;4986057;28;19906;-50